createdAt,value
2019-04-06T00:02:17.071Z,42.85
2019-04-06T00:04:45.590Z,43.98
2019-04-06T00:07:14.040Z,49.45
2019-04-06T00:09:42.550Z,44.50
2019-04-06T00:12:11.035Z,46.28
2019-04-06T00:14:39.372Z,43.73
2019-04-06T00:17:07.968Z,49.60
2019-04-06T00:19:36.461Z,46.42
2019-04-06T00:22:05.206Z,48.20
2019-04-06T00:24:33.936Z,43.02
2019-04-06T00:27:02.348Z,48.35
2019-04-06T00:29:30.683Z,52.17
2019-04-06T00:32:00.893Z,47.62
2019-04-06T00:34:29.347Z,44.98
2019-04-06T00:36:57.840Z,45.85
2019-04-06T00:39:26.400Z,47.05
2019-04-06T00:41:54.729Z,47.62
2019-04-06T00:44:23.204Z,49.90
2019-04-06T00:46:51.729Z,48.73
2019-04-06T00:49:20.206Z,49.15
2019-04-06T00:51:48.906Z,48.55
2019-04-06T00:54:17.319Z,47.10
2019-04-06T00:56:45.741Z,55.30
2019-04-06T00:59:14.053Z,48.55
2019-04-06T01:01:42.575Z,49.13
2019-04-06T01:04:11.018Z,45.33
2019-04-06T01:06:39.354Z,46.80
2019-04-06T01:09:09.151Z,46.00
2019-04-06T01:11:37.740Z,46.15
2019-04-06T01:14:06.138Z,46.37
2019-04-06T01:16:34.519Z,49.53
2019-04-06T01:19:03.118Z,44.70
2019-04-06T01:21:31.441Z,45.67
2019-04-06T01:24:00.067Z,46.92
2019-04-06T01:26:28.627Z,50.23
2019-04-06T01:28:57.198Z,46.55
2019-04-06T01:31:25.519Z,49.63
2019-04-06T01:33:53.860Z,47.45
2019-04-06T01:36:22.345Z,46.65
2019-04-06T01:38:50.858Z,46.83
2019-04-06T01:41:19.168Z,49.95
2019-04-06T01:43:48.214Z,46.37
2019-04-06T01:46:16.590Z,47.70
2019-04-06T01:48:45.229Z,47.80
2019-04-06T01:51:13.607Z,47.20
2019-04-06T01:53:42.452Z,45.88
2019-04-06T01:56:18.381Z,48.60
2019-04-06T01:58:40.980Z,50.75
2019-04-06T02:01:29.336Z,47.27
2019-04-06T02:03:58.063Z,46.30
2019-04-06T02:06:26.797Z,48.80
2019-04-06T02:08:55.464Z,48.30
2019-04-06T02:11:24.005Z,49.08
2019-04-06T02:13:52.514Z,48.33
2019-04-06T02:16:20.908Z,50.98
2019-04-06T02:18:49.682Z,52.40
2019-04-06T02:21:18.129Z,50.40
2019-04-06T02:23:46.647Z,49.30
2019-04-06T02:26:14.960Z,55.70
2019-04-06T02:28:43.574Z,48.95
2019-04-06T02:31:13.762Z,46.33
2019-04-06T02:33:59.910Z,45.58
2019-04-06T02:36:46.261Z,50.45
2019-04-06T02:39:22.441Z,53.08
2019-04-06T02:41:52.670Z,50.88
2019-04-06T02:44:21.014Z,52.00
2019-04-06T02:46:49.410Z,57.85
2019-04-06T02:49:17.736Z,46.02
2019-04-06T02:51:46.124Z,54.25
2019-04-06T02:54:14.704Z,53.35
2019-04-06T02:56:46.206Z,54.15
2019-04-06T02:59:13.427Z,49.23
2019-04-06T03:01:41.757Z,48.68
2019-04-06T03:04:10.170Z,52.27
2019-04-06T03:06:38.501Z,50.30
2019-04-06T03:09:06.923Z,55.03
2019-04-06T03:11:35.587Z,47.83
2019-04-06T03:14:04.349Z,50.83
2019-04-06T03:16:32.698Z,55.20
2019-04-06T03:19:01.251Z,51.02
2019-04-06T03:21:29.582Z,49.00
2019-04-06T03:23:58.090Z,51.80
2019-04-06T03:26:26.413Z,53.40
2019-04-06T03:28:54.808Z,47.93
2019-04-06T03:31:26.975Z,54.33
2019-04-06T03:33:53.209Z,51.77
2019-04-06T03:36:21.783Z,54.45
2019-04-06T03:38:50.582Z,53.23
2019-04-06T03:41:19.084Z,56.37
2019-04-06T03:43:47.678Z,52.85
2019-04-06T03:46:16.346Z,50.73
2019-04-06T03:48:44.843Z,51.63
2019-04-06T03:51:13.498Z,56.58
2019-04-06T03:53:41.924Z,54.70
2019-04-06T03:56:10.381Z,52.33
2019-04-06T03:58:38.715Z,53.87
2019-04-06T04:01:07.020Z,54.00
2019-04-06T04:03:35.807Z,53.30
2019-04-06T04:06:04.382Z,54.60
2019-04-06T04:08:32.961Z,48.85
2019-04-06T04:11:01.568Z,56.98
2019-04-06T04:13:30.004Z,53.42
2019-04-06T04:15:58.324Z,50.23
2019-04-06T04:18:26.655Z,51.98
2019-04-06T04:20:55.144Z,54.33
2019-04-06T04:23:23.539Z,52.50
2019-04-06T04:25:52.190Z,50.45
2019-04-06T04:28:20.779Z,53.42
2019-04-06T04:30:49.599Z,53.75
2019-04-06T04:33:18.010Z,52.75
2019-04-06T04:35:46.783Z,55.30
2019-04-06T04:38:15.550Z,54.50
2019-04-06T04:40:44.361Z,51.35
2019-04-06T04:43:12.912Z,53.28
2019-04-06T04:45:41.580Z,54.40
2019-04-06T04:48:10.102Z,56.98
2019-04-06T04:50:38.461Z,51.30
2019-04-06T04:53:06.947Z,53.30
2019-04-06T04:55:35.791Z,55.45
2019-04-06T04:58:04.328Z,57.17
2019-04-06T05:00:33.111Z,50.23
2019-04-06T05:03:01.603Z,51.00
2019-04-06T05:05:30.295Z,50.08
2019-04-06T05:07:59.647Z,50.73
2019-04-06T05:10:28.091Z,51.50
2019-04-06T05:12:56.632Z,51.37
2019-04-06T05:15:33.650Z,53.58
2019-04-06T05:18:01.955Z,55.23
2019-04-06T05:20:30.534Z,54.98
2019-04-06T05:22:58.905Z,56.80
2019-04-06T05:25:27.287Z,51.77
2019-04-06T05:27:55.777Z,54.08
2019-04-06T05:30:24.370Z,52.43
2019-04-06T05:32:52.681Z,50.63
2019-04-06T05:35:21.269Z,54.30
2019-04-06T05:37:49.921Z,53.10
2019-04-06T05:40:18.695Z,49.38
2019-04-06T05:42:47.446Z,49.77
2019-04-06T05:45:16.458Z,47.55
2019-04-06T05:47:45.163Z,51.42
2019-04-06T05:50:13.605Z,51.15
2019-04-06T05:52:42.419Z,53.00
2019-04-06T05:55:14.039Z,51.77
2019-04-06T05:57:42.591Z,52.88
2019-04-06T06:00:11.529Z,54.83
2019-04-06T06:02:41.765Z,52.00
2019-04-06T06:05:11.138Z,52.58
2019-04-06T06:07:39.771Z,51.60
2019-04-06T06:10:08.757Z,50.40
2019-04-06T06:12:37.321Z,51.55
2019-04-06T06:15:07.368Z,47.55
2019-04-06T06:17:36.061Z,53.87
2019-04-06T06:20:08.281Z,50.23
2019-04-06T06:22:36.787Z,57.15
2019-04-06T06:25:07.987Z,67.45
2019-04-06T06:27:36.486Z,54.65
2019-04-06T06:30:08.651Z,53.28
2019-04-06T06:32:36.995Z,50.83
2019-04-06T06:35:06.069Z,59.27
2019-04-06T06:37:34.394Z,55.03
2019-04-06T06:40:03.402Z,53.83
2019-04-06T06:42:31.794Z,59.27
2019-04-06T06:45:00.382Z,55.73
2019-04-06T06:47:28.873Z,54.60
2019-04-06T06:49:57.572Z,55.75
2019-04-06T06:52:25.947Z,49.13
2019-04-06T06:54:54.783Z,52.38
2019-04-06T06:57:23.118Z,61.83
2019-04-06T06:59:53.288Z,57.45
2019-04-06T07:02:29.096Z,55.05
2019-04-06T07:04:57.445Z,54.95
2019-04-06T07:07:28.620Z,60.12
2019-04-06T07:10:05.006Z,56.58
2019-04-06T07:12:27.256Z,59.03
2019-04-06T07:14:55.777Z,62.58
2019-04-06T07:17:24.143Z,54.85
2019-04-06T07:19:52.733Z,54.75
2019-04-06T07:22:21.383Z,57.60
2019-04-06T07:24:49.734Z,57.13
2019-04-06T07:27:18.210Z,56.23
2019-04-06T07:29:46.678Z,65.90
2019-04-06T07:32:15.275Z,55.25
2019-04-06T07:34:44.010Z,58.78
2019-04-06T07:37:12.359Z,57.60
2019-04-06T07:39:41.034Z,57.00
2019-04-06T07:42:09.652Z,58.55
2019-04-06T07:44:38.121Z,66.12
2019-04-06T07:47:06.535Z,58.65
2019-04-06T07:49:34.871Z,60.52
2019-04-06T07:52:03.216Z,61.18
2019-04-06T07:54:31.880Z,60.95
2019-04-06T07:57:00.324Z,59.15
2019-04-06T07:59:28.808Z,59.42
2019-04-06T08:01:57.565Z,55.88
2019-04-06T08:04:26.247Z,58.98
2019-04-06T08:06:54.666Z,67.00
2019-04-06T08:09:23.487Z,58.98
2019-04-06T08:11:51.813Z,55.25
2019-04-06T08:14:20.580Z,60.25
2019-04-06T08:16:48.910Z,56.23
2019-04-06T08:19:17.581Z,58.42
2019-04-06T08:21:46.324Z,60.52
2019-04-06T08:24:15.144Z,58.73
2019-04-06T08:26:46.028Z,56.42
2019-04-06T08:29:13.760Z,59.55
2019-04-06T08:31:42.268Z,62.08
2019-04-06T08:34:13.290Z,62.30
2019-04-06T08:36:40.948Z,62.20
2019-04-06T08:39:09.472Z,61.53
2019-04-06T08:41:38.116Z,57.67
2019-04-06T08:44:06.864Z,58.45
2019-04-06T08:46:35.677Z,61.28
2019-04-06T08:49:04.427Z,61.48
2019-04-06T08:51:32.969Z,59.20
2019-04-06T08:54:01.394Z,54.85
2019-04-06T08:56:30.082Z,59.23
2019-04-06T08:58:58.693Z,51.35
2019-04-06T09:01:27.278Z,58.65
2019-04-06T09:03:55.773Z,58.02
2019-04-06T09:06:24.250Z,55.12
2019-04-06T09:08:52.690Z,56.00
2019-04-06T09:11:21.246Z,53.50
2019-04-06T09:13:50.138Z,51.68
2019-04-06T09:16:18.663Z,48.85
2019-04-06T09:18:49.239Z,53.00
2019-04-06T09:21:17.488Z,55.50
2019-04-06T09:23:45.952Z,52.50
2019-04-06T09:26:14.291Z,51.60
2019-04-06T09:28:42.696Z,43.33
2019-04-06T09:31:11.043Z,46.08
2019-04-06T09:33:40.227Z,49.60
2019-04-06T09:36:08.845Z,48.25
2019-04-06T09:38:37.557Z,47.45
2019-04-06T09:41:06.259Z,46.90
2019-04-06T09:43:35.030Z,43.13
2019-04-06T09:46:14.098Z,49.58
2019-04-06T09:48:59.557Z,47.45
2019-04-06T09:51:32.351Z,45.17
2019-04-06T09:54:18.454Z,45.40
2019-04-06T09:56:49.111Z,46.77
2019-04-06T09:59:38.009Z,41.25
2019-04-06T10:02:14.539Z,42.08
2019-04-06T10:04:47.555Z,46.23
2019-04-06T10:07:33.961Z,39.50
2019-04-06T10:10:12.787Z,43.55
2019-04-06T10:12:58.962Z,40.50
2019-04-06T10:15:47.515Z,39.95
2019-04-06T10:18:17.958Z,43.60
2019-04-06T10:20:48.387Z,35.65
2019-04-06T10:23:18.485Z,42.38
2019-04-06T10:25:51.455Z,42.10
2019-04-06T10:28:24.567Z,44.15
2019-04-06T10:31:11.040Z,38.85
2019-04-06T10:33:41.293Z,40.78
2019-04-06T10:36:17.366Z,32.53
2019-04-06T10:39:03.727Z,31.42
2019-04-06T10:41:50.461Z,29.50
2019-04-06T10:44:29.313Z,31.90
2019-04-06T10:47:08.390Z,35.28
2019-04-06T10:49:41.281Z,32.83
2019-04-06T10:52:20.124Z,30.95
2019-04-06T10:54:59.138Z,38.63
2019-04-06T10:57:41.382Z,30.68
2019-04-06T11:00:29.904Z,31.50
2019-04-06T11:03:00.285Z,32.73
2019-04-06T11:05:30.508Z,34.03
2019-04-06T11:08:03.459Z,30.45
2019-04-06T11:10:33.511Z,32.03
2019-04-06T11:13:03.503Z,31.33
2019-04-06T11:15:39.649Z,33.92
2019-04-06T11:18:26.386Z,31.97
2019-04-06T11:21:14.772Z,37.95
2019-04-06T11:23:50.302Z,33.45
2019-04-06T11:26:36.873Z,33.40
2019-04-06T11:29:12.898Z,35.45
2019-04-06T11:31:42.904Z,34.48
2019-04-06T11:34:12.915Z,32.00
2019-04-06T11:36:46.392Z,32.40
2019-04-06T11:39:16.707Z,32.55
2019-04-06T11:41:55.905Z,29.87
2019-04-06T11:44:28.836Z,30.37
2019-04-06T11:47:02.021Z,28.52
2019-04-06T11:49:32.196Z,28.80
2019-04-06T11:52:04.867Z,30.77
2019-04-06T11:54:44.336Z,28.38
2019-04-06T11:57:17.195Z,26.60
2019-04-06T11:59:56.271Z,26.30
2019-04-06T12:02:28.939Z,29.30
2019-04-06T12:05:04.947Z,28.55
2019-04-06T12:07:51.411Z,28.32
2019-04-06T12:10:22.044Z,24.40
2019-04-06T12:12:58.231Z,24.87
2019-04-06T12:15:28.269Z,23.55
2019-04-06T12:18:04.588Z,23.47
2019-04-06T12:20:46.422Z,24.47
2019-04-06T12:23:22.649Z,21.45
2019-04-06T12:26:01.844Z,18.67
2019-04-06T12:28:31.873Z,20.02
2019-04-06T12:33:59.981Z,17.35
2019-04-06T12:36:32.396Z,22.13
2019-04-06T12:39:08.254Z,18.27
2019-04-06T12:41:44.533Z,25.00
2019-04-06T12:44:26.233Z,21.95
2019-04-06T12:47:06.580Z,20.62
2019-04-06T12:49:36.617Z,20.30
2019-04-06T12:52:06.751Z,20.57
2019-04-06T12:54:53.438Z,21.55
2019-04-06T12:57:32.631Z,19.62
2019-04-06T13:00:05.467Z,17.85
2019-04-06T13:02:44.673Z,19.50
2019-04-06T13:05:17.881Z,18.95
2019-04-06T13:07:47.989Z,17.35
2019-04-06T13:10:20.673Z,19.20
2019-04-06T13:12:59.710Z,17.45
2019-04-06T13:15:32.878Z,15.85
2019-04-06T13:18:19.450Z,15.30
2019-04-06T13:20:52.375Z,16.55
2019-04-06T13:23:34.933Z,14.90
2019-04-06T13:26:08.638Z,15.80
2019-04-06T13:28:51.484Z,14.73
2019-04-06T13:31:24.627Z,13.83
2019-04-06T13:33:57.354Z,15.15
2019-04-06T13:36:27.466Z,13.30
2019-04-06T13:38:57.628Z,14.05
2019-04-06T13:41:37.189Z,13.18
2019-04-06T13:44:07.454Z,13.03
2019-04-06T13:46:37.617Z,12.47
2019-04-06T13:49:13.788Z,14.23
2019-04-06T13:51:52.921Z,11.57
2019-04-06T13:54:38.847Z,10.95
2019-04-06T13:57:14.887Z,11.03
2019-04-06T14:00:01.527Z,11.95
2019-04-06T14:02:31.668Z,11.40
2019-04-06T14:05:08.433Z,12.40
2019-04-06T14:07:47.671Z,11.45
2019-04-06T14:10:23.745Z,12.65
2019-04-06T14:13:10.009Z,11.63
2019-04-06T14:15:40.140Z,17.65
2019-04-06T14:18:16.191Z,11.88
2019-04-06T14:21:04.496Z,15.40
2019-04-06T14:23:34.977Z,13.22
2019-04-06T14:26:17.468Z,25.15
2019-04-06T14:28:56.710Z,13.68
2019-04-06T14:31:30.807Z,12.93
2019-04-06T14:34:09.955Z,12.27
2019-04-06T14:36:56.607Z,10.45
2019-04-06T14:39:26.623Z,13.75
2019-04-06T14:41:59.411Z,14.28
2019-04-06T14:44:45.087Z,10.58
2019-04-06T14:47:18.109Z,11.68
2019-04-06T14:50:06.479Z,13.28
2019-04-06T14:52:55.030Z,11.45
2019-04-06T14:55:34.045Z,9.60
2019-04-06T14:58:04.203Z,15.15
2019-04-06T15:00:50.822Z,12.37
2019-04-06T15:03:21.277Z,10.35
2019-04-06T15:06:03.705Z,9.65
2019-04-06T15:08:33.740Z,11.70
2019-04-06T15:11:18.974Z,10.78
2019-04-06T15:13:55.252Z,14.78
2019-04-06T15:16:34.724Z,11.40
2019-04-06T15:19:11.005Z,11.12
2019-04-06T15:21:44.058Z,9.93
2019-04-06T15:24:20.196Z,11.45
2019-04-06T15:26:59.196Z,11.00
2019-04-06T15:29:29.219Z,11.05
2019-04-06T15:31:59.470Z,9.43
2019-04-06T15:34:32.691Z,9.78
2019-04-06T15:37:03.166Z,13.08
2019-04-06T15:39:39.233Z,12.05
2019-04-06T15:42:26.863Z,11.40
2019-04-06T15:44:57.071Z,11.57
2019-04-06T15:47:45.531Z,9.28
2019-04-06T15:50:15.769Z,8.78
2019-04-06T15:52:51.569Z,8.85
2019-04-06T15:55:21.738Z,9.23
2019-04-06T15:58:06.907Z,10.93
2019-04-06T16:00:37.233Z,7.97
2019-04-06T16:03:07.443Z,7.85
2019-04-06T16:05:37.766Z,9.85
2019-04-06T16:08:16.374Z,7.75
2019-04-06T16:10:49.153Z,9.83
2019-04-06T16:13:35.466Z,8.30
2019-04-06T16:16:14.477Z,7.53
2019-04-06T16:19:02.772Z,9.95
2019-04-06T16:21:44.970Z,9.53
2019-04-06T16:24:15.140Z,17.80
2019-04-06T16:26:48.386Z,12.05
2019-04-06T16:29:24.784Z,7.97
2019-04-06T16:31:57.514Z,8.83
2019-04-06T16:34:30.840Z,6.85
2019-04-06T16:37:06.897Z,6.62
2019-04-06T16:39:40.224Z,8.98
2019-04-06T16:42:19.540Z,9.25
2019-04-06T16:44:49.631Z,7.55
2019-04-06T16:47:22.745Z,6.58
2019-04-06T16:50:09.520Z,7.03
2019-04-06T16:52:58.552Z,5.78
2019-04-06T16:55:44.909Z,7.22
2019-04-06T16:58:18.341Z,9.00
2019-04-06T17:00:48.780Z,7.65
2019-04-06T17:03:19.253Z,8.03
2019-04-06T17:05:55.229Z,8.53
2019-04-06T17:08:28.176Z,8.45
2019-04-06T17:11:01.355Z,7.78
2019-04-06T17:13:49.829Z,9.73
2019-04-06T17:16:28.682Z,11.40
2019-04-06T17:19:04.653Z,11.50
2019-04-06T17:21:41.303Z,12.35
2019-04-06T17:24:11.530Z,11.73
2019-04-06T17:26:48.118Z,9.85
2019-04-06T17:29:34.914Z,8.85
2019-04-06T17:32:05.625Z,10.58
2019-04-06T17:34:36.051Z,9.23
2019-04-06T17:37:12.356Z,11.05
2019-04-06T17:39:45.548Z,10.43
2019-04-06T17:42:15.818Z,10.30
2019-04-06T17:45:02.628Z,9.80
2019-04-06T17:47:36.094Z,11.12
2019-04-06T17:50:19.846Z,13.78
2019-04-06T17:53:06.503Z,11.00
2019-04-06T17:55:37.062Z,9.68
2019-04-06T17:58:08.384Z,9.58
2019-04-06T18:00:41.640Z,9.28
2019-04-06T18:03:17.458Z,11.40
2019-04-06T18:05:50.762Z,10.80
2019-04-06T18:08:30.443Z,17.62
2019-04-06T18:11:09.945Z,13.70
2019-04-06T18:13:50.974Z,12.80
2019-04-06T18:16:21.863Z,8.78
2019-04-06T18:18:51.089Z,8.55
2019-04-06T18:21:20.015Z,10.08
2019-04-06T18:23:48.814Z,11.28
2019-04-06T18:26:19.135Z,610.90
2019-04-06T18:28:48.405Z,254.90
2019-04-06T18:31:19.105Z,430.65
2019-04-06T18:33:48.154Z,252.57
2019-04-06T18:36:18.158Z,404.95
2019-04-06T18:38:54.799Z,515.73
2019-04-06T18:41:23.940Z,383.13
2019-04-06T18:43:52.500Z,749.17
2019-04-06T18:46:20.984Z,402.62
2019-04-06T18:48:49.454Z,471.93
2019-04-06T18:51:18.159Z,301.82
2019-04-06T18:53:47.022Z,210.90
2019-04-06T18:56:15.621Z,168.80
2019-04-06T18:58:44.061Z,176.47
2019-04-06T19:01:12.416Z,394.05
2019-04-06T19:03:41.304Z,181.28
2019-04-06T19:06:09.819Z,77.55
2019-04-06T19:08:39.174Z,36.15
2019-04-06T19:11:08.106Z,19.73
2019-04-06T19:13:36.535Z,12.05
2019-04-06T19:16:05.006Z,10.05
2019-04-06T19:18:33.450Z,11.35
2019-04-06T19:21:01.834Z,13.20
2019-04-06T19:23:30.185Z,9.33
2019-04-06T19:25:59.077Z,11.00
2019-04-06T19:28:27.694Z,11.80
2019-04-06T19:30:56.686Z,11.55
2019-04-06T19:33:25.939Z,12.53
2019-04-06T19:35:55.141Z,9.85
2019-04-06T19:38:23.681Z,17.15
2019-04-06T19:40:52.131Z,39.38
2019-04-06T19:43:20.477Z,20.20
2019-04-06T19:45:49.005Z,32.17
2019-04-06T19:48:17.823Z,15.23
2019-04-06T19:50:46.514Z,11.10
2019-04-06T19:53:15.248Z,9.20
2019-04-06T19:55:43.753Z,7.87
2019-04-06T19:58:12.580Z,12.65
2019-04-06T20:00:41.318Z,8.18
2019-04-06T20:03:10.078Z,9.40
2019-04-06T20:05:39.001Z,8.98
2019-04-06T20:08:08.095Z,10.50
2019-04-06T20:10:36.824Z,8.05
2019-04-06T20:13:07.245Z,8.48
2019-04-06T20:15:36.253Z,9.98
2019-04-06T20:18:04.997Z,9.18
2019-04-06T20:20:34.197Z,8.15
2019-04-06T20:23:02.857Z,9.30
2019-04-06T20:25:31.236Z,7.55
2019-04-06T20:28:00.375Z,9.38
2019-04-06T20:30:28.979Z,10.68
2019-04-06T20:32:57.456Z,10.50
2019-04-06T20:35:26.130Z,11.10
2019-04-06T20:37:54.859Z,19.67
2019-04-06T20:40:23.428Z,26.35
2019-04-06T20:42:51.782Z,9.65
2019-04-06T20:45:20.452Z,8.85
2019-04-06T20:47:48.775Z,8.60
2019-04-06T20:50:17.182Z,10.65
2019-04-06T20:52:46.018Z,10.65
2019-04-06T20:55:14.554Z,10.05
2019-04-06T20:57:45.016Z,9.08
2019-04-06T21:00:14.108Z,11.10
2019-04-06T21:02:42.975Z,11.20
2019-04-06T21:05:12.458Z,14.07
2019-04-06T21:07:41.510Z,11.22
2019-04-06T21:10:11.010Z,15.10
2019-04-06T21:12:39.748Z,10.63
2019-04-06T21:15:17.061Z,9.45
2019-04-06T21:17:38.672Z,12.58
2019-04-06T21:20:07.509Z,10.63
2019-04-06T21:22:35.941Z,11.63
2019-04-06T21:25:05.016Z,11.90
2019-04-06T21:27:34.095Z,9.93
2019-04-06T21:30:03.397Z,11.45
2019-04-06T21:32:32.566Z,27.32
2019-04-06T21:35:03.205Z,25.72
2019-04-06T21:37:31.410Z,16.32
2019-04-06T21:39:59.970Z,14.10
2019-04-06T21:42:28.650Z,17.02
2019-04-06T21:44:57.196Z,12.82
2019-04-06T21:47:25.551Z,13.28
2019-04-06T21:49:54.343Z,11.22
2019-04-06T21:52:22.923Z,11.55
2019-04-06T21:54:51.874Z,9.83
2019-04-06T21:57:20.475Z,8.10
2019-04-06T21:59:49.752Z,9.70
2019-04-06T22:02:18.414Z,10.82
2019-04-06T22:04:46.910Z,11.05
2019-04-06T22:07:15.556Z,6.47
2019-04-06T22:09:44.069Z,8.25
2019-04-06T22:12:12.550Z,8.28
2019-04-06T22:14:40.981Z,6.35
2019-04-06T22:17:10.053Z,6.03
2019-04-06T22:19:39.163Z,10.35
2019-04-06T22:22:07.786Z,7.83
2019-04-06T22:24:36.094Z,5.65
2019-04-06T22:27:05.296Z,7.03
2019-04-06T22:29:34.270Z,6.25
2019-04-06T22:32:02.791Z,7.45
2019-04-06T22:34:39.427Z,7.47
2019-04-06T22:37:01.521Z,5.42
2019-04-06T22:39:29.977Z,6.03
2019-04-06T22:41:58.473Z,8.53
2019-04-06T22:44:27.117Z,4.35
2019-04-06T22:46:55.615Z,5.50
2019-04-06T22:49:24.017Z,5.12
2019-04-06T22:51:52.853Z,5.40
2019-04-06T22:54:21.490Z,5.50
2019-04-06T22:56:49.879Z,5.28
2019-04-06T22:59:18.827Z,5.03
2019-04-06T23:01:47.317Z,6.97
2019-04-06T23:04:20.361Z,5.40
2019-04-06T23:06:50.435Z,5.50
2019-04-06T23:09:18.742Z,6.60
2019-04-06T23:11:47.115Z,8.60
2019-04-06T23:14:15.737Z,4.53
2019-04-06T23:16:44.739Z,4.37
2019-04-06T23:19:13.319Z,5.50
2019-04-06T23:21:41.705Z,4.35
2019-04-06T23:24:10.242Z,5.53
2019-04-06T23:26:39.756Z,5.90
2019-04-06T23:29:08.787Z,5.45
2019-04-06T23:31:37.298Z,6.08
2019-04-06T23:34:06.691Z,4.45
2019-04-06T23:36:35.110Z,5.03
2019-04-06T23:39:05.766Z,7.03
2019-04-06T23:41:34.661Z,5.33
2019-04-06T23:44:03.186Z,5.45
2019-04-06T23:46:31.857Z,7.22
2019-04-06T23:49:02.424Z,5.20
2019-04-06T23:51:30.730Z,5.53
2019-04-06T23:53:59.155Z,4.83
2019-04-06T23:56:27.681Z,5.00
2019-04-06T23:58:56.169Z,7.20
